Time;durP1;ratioP1;P1;durP2;ratioP2;P2;SDS_P1;SDS_P2;PMS_P1;PMS_P2;Temp;Humidity;BMP_temperature;BMP_pressure;BME280_temperature;BME280_humidity;BME280_pressure;Samples;Min_cycle;Max_cycle;Signal;HPM_P1;HPM_P2
2023/04/29 00:01:25;;;;;;;35.80;5.30;;;17.50;65.20;;;;;;5003767;28;20456;-89
2023/04/29 00:03:55;;;;;;;6.30;3.60;;;17.50;64.50;;;;;;5008248;28;20482;-87
2023/04/29 00:06:22;;;;;;;18.77;5.03;;;17.40;65.10;;;;;;5001533;28;20469;-91
2023/04/29 00:08:50;;;;;;;49.30;6.37;;;17.40;65.10;;;;;;5001095;28;20897;-87
2023/04/29 00:11:18;;;;;;;34.90;6.50;;;17.40;64.70;;;;;;5020214;28;20982;-89
2023/04/29 00:13:45;;;;;;;36.23;6.20;;;17.30;64.90;;;;;;5006654;28;21882;-89
2023/04/29 00:16:12;;;;;;;28.80;5.97;;;17.20;65.30;;;;;;5023521;28;20480;-89
2023/04/29 00:18:39;;;;;;;40.37;6.30;;;17.10;66.50;;;;;;5025135;28;20507;-88
2023/04/29 00:21:07;;;;;;;21.73;4.87;;;17.10;66.30;;;;;;5013168;28;20459;-87
2023/04/29 00:23:35;;;;;;;15.30;6.17;;;17.20;66.30;;;;;;5009398;28;20524;-86
2023/04/29 00:26:02;;;;;;;61.93;6.70;;;17.20;65.80;;;;;;5022550;28;20476;-91
2023/04/29 00:28:29;;;;;;;33.60;6.20;;;17.00;66.90;;;;;;5009759;28;20452;-88
2023/04/29 00:30:56;;;;;;;12.03;4.80;;;16.90;67.20;;;;;;5011957;28;20452;-90
2023/04/29 00:33:24;;;;;;;46.43;6.70;;;17.00;67.20;;;;;;5004385;28;20444;-88
2023/04/29 00:35:51;;;;;;;101.73;7.70;;;17.00;66.40;;;;;;5018719;28;20503;-89
2023/04/29 00:38:20;;;;;;;56.07;6.33;;;17.10;66.50;;;;;;5003849;28;20454;-89
2023/04/29 00:40:47;;;;;;;76.50;8.27;;;17.20;66.30;;;;;;5032259;28;20482;-89
2023/04/29 00:43:14;;;;;;;142.63;7.07;;;17.20;66.40;;;;;;5007079;28;20486;-90
2023/04/29 00:45:41;;;;;;;6.60;3.20;;;16.90;65.60;;;;;;5001995;28;20469;-87
2023/04/29 00:48:08;;;;;;;20.53;3.47;;;16.90;66.10;;;;;;5000726;28;20444;-89
2023/04/29 00:50:35;;;;;;;89.57;7.30;;;16.90;65.20;;;;;;5003737;28;20441;-89
2023/04/29 00:53:02;;;;;;;15.73;4.60;;;16.90;64.80;;;;;;5040078;28;20907;-89
2023/04/29 00:55:33;;;;;;;7.83;3.67;;;16.90;64.90;;;;;;4998508;28;20548;-87
2023/04/29 00:58:01;;;;;;;3.37;3.07;;;16.90;64.50;;;;;;5027066;28;20733;-87
2023/04/29 01:00:29;;;;;;;5.63;3.10;;;16.90;64.50;;;;;;5009564;28;20444;-90
2023/04/29 01:02:57;;;;;;;3.30;2.70;;;16.90;63.80;;;;;;5006520;28;20457;-89
2023/04/29 01:05:24;;;;;;;4.50;2.97;;;17.00;63.60;;;;;;5010783;28;20534;-89
2023/04/29 01:08:02;;;;;;;3.47;3.10;;;17.00;63.40;;;;;;5034817;28;20452;-89
2023/04/29 01:10:39;;;;;;;3.63;3.33;;;17.00;63.40;;;;;;5007931;28;20453;-87
2023/04/29 01:13:11;;;;;;;5.43;4.43;;;17.00;63.10;;;;;;5007185;28;20953;-88
2023/04/29 01:15:47;;;;;;;8.00;3.90;;;17.00;63.40;;;;;;5009184;28;20818;-90
2023/04/29 01:18:23;;;;;;;23.03;3.70;;;17.00;63.50;;;;;;5003406;28;20510;-88
2023/04/29 01:20:51;;;;;;;6.17;4.40;;;16.90;63.60;;;;;;5003891;28;20452;-90
2023/04/29 01:23:18;;;;;;;15.30;4.60;;;16.80;63.90;;;;;;5011824;28;20475;-89
2023/04/29 01:25:48;;;;;;;53.50;6.63;;;16.80;63.90;;;;;;5005348;28;21002;-89
2023/04/29 01:28:38;;;;;;;82.07;6.27;;;16.50;64.80;;;;;;5018468;28;20746;-86
2023/04/29 01:31:10;;;;;;;24.53;5.17;;;15.90;67.20;;;;;;5010752;28;20529;-88
2023/04/29 01:33:44;;;;;;;14.40;4.63;;;15.80;68.50;;;;;;5017689;28;20450;-91
2023/04/29 01:36:23;;;;;;;23.87;4.53;;;16.00;67.80;;;;;;5006944;28;20481;-90
2023/04/29 01:39:00;;;;;;;18.73;3.80;;;16.10;67.00;;;;;;5006231;28;20503;-89
2023/04/29 01:41:42;;;;;;;69.40;6.00;;;16.20;66.10;;;;;;5008343;28;20450;-89
2023/04/29 01:44:30;;;;;;;59.53;6.30;;;16.20;66.10;;;;;;5024701;28;20481;-87
2023/04/29 01:46:59;;;;;;;58.90;8.23;;;16.10;66.30;;;;;;5009387;28;20464;-87
2023/04/29 01:49:36;;;;;;;5.40;3.43;;;16.00;66.50;;;;;;4998132;28;21061;-87
2023/04/29 01:52:04;;;;;;;6.67;3.40;;;15.80;66.90;;;;;;5007990;28;20446;-87
2023/04/29 01:54:35;;;;;;;12.07;3.67;;;15.60;68.00;;;;;;5001315;28;20456;-89
2023/04/29 01:57:03;;;;;;;20.00;5.10;;;15.40;68.00;;;;;;5020993;28;20724;-88
2023/04/29 01:59:56;;;;;;;6.43;3.93;;;15.40;68.70;;;;;;4998128;28;20446;-91
2023/04/29 02:02:42;;;;;;;34.30;6.57;;;15.70;67.90;;;;;;5021001;28;20452;-89
2023/04/29 02:05:38;;;;;;;83.40;8.47;;;15.90;66.90;;;;;;5035970;28;20487;-89
2023/04/29 02:08:07;;;;;;;10.97;4.63;;;15.70;67.50;;;;;;5013792;28;20542;-89
2023/04/29 02:10:38;;;;;;;42.30;6.93;;;15.90;67.50;;;;;;5022118;28;20462;-86
2023/04/29 02:13:28;;;;;;;16.90;6.13;;;16.00;67.10;;;;;;5004886;28;20595;-88
2023/04/29 02:15:56;;;;;;;26.10;5.40;;;16.00;66.80;;;;;;5008146;28;20477;-89
2023/04/29 02:18:24;;;;;;;47.93;6.87;;;15.90;66.40;;;;;;5008672;28;20441;-91
2023/04/29 02:20:53;;;;;;;7.67;4.43;;;15.80;66.20;;;;;;5000810;28;20451;-89
2023/04/29 02:23:20;;;;;;;18.40;5.57;;;15.80;68.10;;;;;;5008958;28;20452;-88
2023/04/29 02:25:48;;;;;;;35.03;5.37;;;16.00;66.70;;;;;;5003738;28;20484;-89
2023/04/29 02:28:16;;;;;;;43.83;5.63;;;16.10;65.80;;;;;;5008180;28;20457;-88
2023/04/29 02:30:45;;;;;;;78.80;7.13;;;16.10;65.10;;;;;;5009848;28;20803;-89
2023/04/29 02:33:12;;;;;;;18.43;4.40;;;15.70;66.50;;;;;;5033054;28;20489;-90
2023/04/29 02:35:39;;;;;;;28.80;5.77;;;15.90;66.80;;;;;;5007966;28;20531;-88
2023/04/29 02:38:06;;;;;;;19.23;4.60;;;16.00;65.80;;;;;;5001434;28;20449;-89
2023/04/29 02:40:34;;;;;;;30.97;5.33;;;15.70;66.70;;;;;;5001401;28;20444;-87
2023/04/29 02:43:01;;;;;;;61.53;5.73;;;15.30;67.30;;;;;;5008751;28;20460;-87
2023/04/29 02:45:29;;;;;;;19.50;5.40;;;15.00;69.10;;;;;;5009091;28;21109;-89
2023/04/29 02:47:58;;;;;;;37.00;6.00;;;14.80;70.40;;;;;;5007641;28;20460;-90
2023/04/29 02:50:44;;;;;;;14.50;4.20;;;14.70;70.20;;;;;;5018008;28;20454;-88
2023/04/29 02:53:30;;;;;;;17.97;5.50;;;15.10;69.50;;;;;;5023619;28;21176;-90
2023/04/29 02:55:57;;;;;;;12.17;4.73;;;15.50;68.60;;;;;;5018475;28;20476;-90
2023/04/29 02:58:25;;;;;;;10.53;4.07;;;15.70;67.40;;;;;;5001803;28;20446;-89
2023/04/29 03:00:52;;;;;;;10.20;4.13;;;15.80;66.30;;;;;;5003355;28;20461;-89
2023/04/29 03:03:21;;;;;;;34.67;5.60;;;15.90;65.70;;;;;;5003039;28;20484;-87
2023/04/29 03:05:49;;;;;;;43.70;7.47;;;16.00;65.70;;;;;;5011386;28;20483;-88
2023/04/29 03:08:16;;;;;;;47.13;5.50;;;16.00;65.80;;;;;;4999829;28;20981;-89
2023/04/29 03:10:43;;;;;;;11.20;5.97;;;15.80;66.10;;;;;;5005041;28;20539;-90
2023/04/29 03:13:11;;;;;;;7.00;4.77;;;15.60;66.30;;;;;;4998013;28;20461;-88
2023/04/29 03:15:38;;;;;;;7.53;5.60;;;15.50;66.80;;;;;;5006751;28;20473;-87
2023/04/29 03:18:06;;;;;;;6.33;4.93;;;15.70;66.50;;;;;;5008561;28;20520;-90
2023/04/29 03:20:36;;;;;;;7.67;4.93;;;15.90;66.10;;;;;;5016145;28;20545;-91
2023/04/29 03:23:04;;;;;;;21.67;5.20;;;15.90;65.40;;;;;;4995838;28;20748;-89
2023/04/29 03:25:32;;;;;;;12.67;5.40;;;16.00;65.80;;;;;;5001167;28;20484;-89
2023/04/29 03:27:59;;;;;;;7.90;4.70;;;15.60;66.20;;;;;;5024326;28;20543;-87
2023/04/29 03:30:26;;;;;;;8.30;5.40;;;15.40;67.80;;;;;;5018255;28;20778;-90
2023/04/29 03:32:56;;;;;;;6.00;4.20;;;15.10;68.20;;;;;;5015013;28;20449;-90
2023/04/29 03:35:24;;;;;;;5.30;4.00;;;14.90;68.90;;;;;;5006634;28;20497;-90
2023/04/29 03:38:12;;;;;;;6.80;4.10;;;15.10;68.60;;;;;;5015914;28;20467;-88
2023/04/29 03:40:40;;;;;;;5.30;3.90;;;15.00;69.00;;;;;;5009142;28;20480;-89
2023/04/29 03:43:08;;;;;;;7.43;4.60;;;15.20;68.90;;;;;;4998473;28;20453;-89
2023/04/29 03:45:35;;;;;;;7.63;4.90;;;15.60;68.20;;;;;;4999112;28;20534;-89
2023/04/29 03:48:02;;;;;;;6.70;4.80;;;15.80;67.00;;;;;;5004563;28;20484;-91
2023/04/29 03:50:30;;;;;;;8.23;4.57;;;15.90;66.90;;;;;;5022902;28;20536;-88
2023/04/29 03:52:57;;;;;;;7.03;5.50;;;15.70;67.60;;;;;;5000849;28;20926;-90
2023/04/29 03:55:26;;;;;;;6.70;4.90;;;15.80;67.60;;;;;;5035914;28;20461;-89
2023/04/29 03:57:53;;;;;;;7.17;5.33;;;15.80;67.10;;;;;;5001232;28;20907;-90
2023/04/29 04:00:20;;;;;;;8.27;5.93;;;16.00;66.70;;;;;;5008813;28;21034;-89
2023/04/29 04:02:52;;;;;;;7.60;5.33;;;16.10;66.40;;;;;;5020532;28;20512;-89
2023/04/29 04:05:23;;;;;;;6.03;5.13;;;16.10;66.10;;;;;;4998190;28;20537;-90
2023/04/29 04:07:54;;;;;;;10.77;5.67;;;16.00;66.10;;;;;;5015628;28;20449;-88
2023/04/29 04:10:38;;;;;;;7.63;5.20;;;16.10;66.50;;;;;;5032643;28;20449;-92
2023/04/29 04:13:15;;;;;;;7.37;5.20;;;16.20;66.10;;;;;;5034509;28;20460;-89
2023/04/29 04:15:49;;;;;;;7.53;5.83;;;16.30;66.00;;;;;;5013654;28;20993;-91
2023/04/29 04:18:17;;;;;;;9.77;6.20;;;16.40;65.70;;;;;;5010039;28;20456;-87
2023/04/29 04:20:44;;;;;;;7.83;5.87;;;16.30;65.50;;;;;;5012310;28;20449;-91
2023/04/29 04:23:11;;;;;;;9.80;5.70;;;16.20;66.20;;;;;;5005062;28;20945;-89
2023/04/29 04:25:45;;;;;;;10.40;5.83;;;16.30;66.30;;;;;;5011898;28;20508;-88
2023/04/29 04:28:33;;;;;;;12.27;6.40;;;16.40;65.80;;;;;;5020017;28;20441;-88
2023/04/29 04:31:06;;;;;;;17.83;7.20;;;16.40;65.70;;;;;;5006622;28;20792;-90
2023/04/29 04:33:35;;;;;;;22.37;7.77;;;16.30;65.90;;;;;;5007810;28;20452;-89
2023/04/29 04:36:02;;;;;;;13.07;7.43;;;16.30;66.00;;;;;;5005700;28;20473;-91
2023/04/29 04:38:31;;;;;;;12.63;7.90;;;16.30;65.70;;;;;;5012482;28;20463;-89
2023/04/29 04:41:01;;;;;;;10.90;7.50;;;15.80;67.20;;;;;;5012648;28;20463;-89
2023/04/29 04:43:34;;;;;;;10.90;7.70;;;15.60;68.50;;;;;;5014777;28;20453;-89
2023/04/29 04:46:10;;;;;;;9.70;6.80;;;15.30;69.70;;;;;;5020170;28;20502;-90
2023/04/29 04:48:39;;;;;;;10.20;6.67;;;15.50;69.80;;;;;;5008696;28;20460;-91
2023/04/29 04:51:09;;;;;;;9.47;6.47;;;15.60;70.10;;;;;;5027945;28;20461;-88
2023/04/29 04:53:37;;;;;;;8.73;6.60;;;15.80;69.70;;;;;;5010930;28;20444;-88
2023/04/29 04:56:10;;;;;;;11.70;6.27;;;16.10;69.20;;;;;;5003387;28;20503;-88
2023/04/29 04:58:38;;;;;;;8.47;6.87;;;16.20;68.30;;;;;;5035226;28;20457;-89
2023/04/29 05:01:05;;;;;;;8.83;6.10;;;16.30;68.00;;;;;;5012206;28;20453;-89
2023/04/29 05:03:33;;;;;;;9.17;6.80;;;16.50;67.60;;;;;;5013775;28;20851;-92
2023/04/29 05:06:02;;;;;;;6.63;5.90;;;16.40;68.00;;;;;;5002642;28;20562;-87
2023/04/29 05:08:31;;;;;;;7.37;5.13;;;16.50;67.90;;;;;;5006798;28;20458;-90
2023/04/29 05:11:01;;;;;;;9.73;6.20;;;16.70;67.50;;;;;;5005290;28;20456;-90
2023/04/29 05:13:29;;;;;;;7.70;6.03;;;16.50;67.90;;;;;;5010432;28;20492;-90
2023/04/29 05:15:57;;;;;;;7.70;6.37;;;16.40;68.10;;;;;;5006100;28;20477;-90
2023/04/29 05:18:29;;;;;;;9.20;6.23;;;16.40;68.20;;;;;;5022878;28;20452;-87
2023/04/29 05:20:56;;;;;;;9.20;6.53;;;16.50;68.30;;;;;;5009398;28;20508;-90
2023/04/29 05:23:22;;;;;;;8.43;6.57;;;16.70;67.70;;;;;;5004961;28;20460;-89
2023/04/29 05:25:50;;;;;;;11.10;7.90;;;16.80;67.20;;;;;;5000897;28;20567;-87
2023/04/29 05:28:18;;;;;;;8.97;6.80;;;16.70;66.50;;;;;;5037429;28;20744;-88
2023/04/29 05:30:47;;;;;;;11.00;6.73;;;16.60;67.70;;;;;;4996057;28;20970;-88
2023/04/29 05:33:15;;;;;;;8.67;6.40;;;16.70;67.20;;;;;;5010110;28;20472;-89
2023/04/29 05:35:43;;;;;;;10.70;6.60;;;16.80;67.40;;;;;;5002556;28;20460;-90
2023/04/29 05:38:11;;;;;;;9.90;7.50;;;16.70;67.10;;;;;;4999503;28;20444;-91
2023/04/29 05:40:48;;;;;;;12.10;7.90;;;16.70;67.30;;;;;;5020730;28;20457;-90
2023/04/29 05:43:36;;;;;;;8.77;6.90;;;16.80;67.60;;;;;;5019739;28;20850;-89
2023/04/29 05:46:05;;;;;;;7.57;6.20;;;16.80;67.30;;;;;;5009046;28;20469;-90
2023/04/29 05:48:32;;;;;;;9.43;7.80;;;16.90;67.30;;;;;;4996055;28;20988;-89
2023/04/29 05:50:59;;;;;;;7.90;6.67;;;17.00;67.20;;;;;;4981763;28;20461;-90
2023/04/29 05:53:26;;;;;;;8.70;6.67;;;17.20;67.10;;;;;;5011227;28;20481;-88
2023/04/29 05:55:54;;;;;;;7.23;6.03;;;17.20;66.50;;;;;;5020228;28;20468;-88
2023/04/29 05:58:22;;;;;;;7.40;6.60;;;17.30;66.50;;;;;;5018615;28;20465;-89
2023/04/29 06:00:50;;;;;;;8.73;6.33;;;17.30;66.10;;;;;;5003996;28;20445;-90
2023/04/29 06:03:23;;;;;;;6.63;5.87;;;17.40;66.10;;;;;;5004337;28;21904;-87
2023/04/29 06:05:57;;;;;;;9.57;6.27;;;17.50;66.80;;;;;;5000545;28;20477;-91
2023/04/29 06:08:37;;;;;;;12.40;6.40;;;17.50;65.70;;;;;;4996262;28;20457;-90
2023/04/29 06:11:14;;;;;;;8.30;6.00;;;17.50;65.80;;;;;;5004585;28;20463;-90
2023/04/29 06:13:42;;;;;;;6.50;5.70;;;17.60;65.70;;;;;;5012470;28;20963;-88
2023/04/29 06:16:09;;;;;;;8.20;6.20;;;17.60;65.20;;;;;;4999690;28;20465;-88
2023/04/29 06:18:38;;;;;;;12.20;10.43;;;17.60;65.40;;;;;;5019914;28;21038;-89
2023/04/29 06:21:05;;;;;;;10.57;7.83;;;17.50;64.80;;;;;;5003150;28;20523;-89
2023/04/29 06:23:32;;;;;;;9.30;6.20;;;17.40;65.00;;;;;;5011160;28;20523;-90
2023/04/29 06:26:02;;;;;;;7.80;6.20;;;17.20;63.70;;;;;;5001903;28;20501;-91
2023/04/29 06:28:30;;;;;;;8.80;6.50;;;17.20;64.50;;;;;;5005506;28;20553;-90
2023/04/29 06:30:57;;;;;;;11.47;6.97;;;17.40;64.70;;;;;;5025217;28;20965;-89
2023/04/29 06:33:25;;;;;;;8.77;7.17;;;17.40;65.30;;;;;;5020199;28;20906;-89
2023/04/29 06:35:53;;;;;;;8.83;7.00;;;17.60;65.40;;;;;;5007055;28;20473;-87
2023/04/29 06:38:43;;;;;;;9.30;6.93;;;17.80;65.40;;;;;;5050331;28;20792;-89
2023/04/29 06:41:23;;;;;;;8.33;6.93;;;17.90;63.80;;;;;;4999831;28;20508;-89
2023/04/29 06:44:05;;;;;;;8.53;6.87;;;17.90;63.70;;;;;;5020926;28;20466;-88
2023/04/29 06:46:47;;;;;;;11.80;7.53;;;17.90;63.00;;;;;;5018077;28;20845;-89
2023/04/29 06:49:26;;;;;;;10.50;8.80;;;17.90;63.60;;;;;;5024021;28;20465;-89
2023/04/29 06:51:55;;;;;;;11.37;7.00;;;17.90;63.10;;;;;;5007859;28;20453;-89
2023/04/29 06:54:22;;;;;;;10.40;8.07;;;18.00;62.60;;;;;;4997631;28;20468;-90
2023/04/29 06:56:50;;;;;;;9.40;7.30;;;18.00;62.60;;;;;;5008498;28;20465;-89
2023/04/29 06:59:18;;;;;;;8.53;6.17;;;18.10;62.60;;;;;;5005225;28;20460;-86
2023/04/29 07:01:45;;;;;;;12.40;6.53;;;17.80;59.20;;;;;;5012095;28;20958;-87
2023/04/29 07:04:12;;;;;;;11.17;8.00;;;17.30;59.20;;;;;;5015018;28;20453;-90
2023/04/29 07:06:40;;;;;;;11.10;7.83;;;17.00;59.90;;;;;;5009830;28;20507;-88
2023/04/29 07:09:09;;;;;;;12.10;6.97;;;17.00;61.60;;;;;;5000318;28;20501;-90
2023/04/29 07:11:37;;;;;;;10.83;7.30;;;17.10;61.00;;;;;;5007218;28;20484;-87
2023/04/29 07:14:04;;;;;;;11.90;7.53;;;17.30;60.70;;;;;;5031947;28;20477;-89
2023/04/29 07:16:31;;;;;;;11.60;7.70;;;17.50;60.90;;;;;;5028288;28;20465;-89
2023/04/29 07:18:58;;;;;;;10.30;7.60;;;17.60;59.50;;;;;;5001543;28;20441;-89
2023/04/29 07:21:26;;;;;;;13.93;8.50;;;17.70;59.00;;;;;;4999016;28;20752;-89
2023/04/29 07:23:55;;;;;;;10.30;7.53;;;17.70;58.50;;;;;;5000460;28;20504;-89
2023/04/29 07:26:24;;;;;;;11.73;8.27;;;17.70;58.60;;;;;;5011751;28;21017;-90
2023/04/29 07:28:51;;;;;;;10.63;7.77;;;17.80;59.40;;;;;;5007152;28;20977;-87
2023/04/29 07:31:18;;;;;;;11.90;7.20;;;17.90;59.60;;;;;;5002093;28;20456;-90
2023/04/29 07:33:48;;;;;;;9.77;6.90;;;17.80;58.40;;;;;;5008885;28;20457;-89
2023/04/29 07:36:16;;;;;;;11.80;6.87;;;17.60;59.10;;;;;;4999250;28;20872;-89
2023/04/29 07:38:43;;;;;;;10.20;7.40;;;17.60;59.70;;;;;;5010180;28;20464;-88
2023/04/29 07:41:10;;;;;;;10.00;7.77;;;17.80;60.30;;;;;;5022521;28;20779;-87
2023/04/29 07:43:39;;;;;;;8.07;6.20;;;18.00;60.00;;;;;;5001803;28;20986;-88
2023/04/29 07:46:07;;;;;;;9.40;6.50;;;18.10;59.40;;;;;;4998281;28;20483;-88
2023/04/29 07:48:38;;;;;;;10.73;6.90;;;18.10;58.70;;;;;;5028815;28;20967;-92
2023/04/29 07:51:05;;;;;;;11.03;6.80;;;18.10;58.90;;;;;;5031725;28;20536;-88
2023/04/29 07:53:32;;;;;;;9.80;6.13;;;18.10;59.90;;;;;;5011060;28;20445;-86
2023/04/29 07:55:59;;;;;;;7.63;5.07;;;18.00;59.00;;;;;;5004940;28;20453;-87
2023/04/29 07:58:28;;;;;;;4.87;4.33;;;18.00;58.90;;;;;;5008178;28;20879;-87
2023/04/29 08:00:57;;;;;;;5.77;4.80;;;18.10;58.10;;;;;;5004154;28;20459;-89
2023/04/29 08:03:25;;;;;;;5.17;4.20;;;18.00;56.70;;;;;;5036511;28;20451;-87
2023/04/29 08:05:52;;;;;;;5.13;4.07;;;17.90;57.20;;;;;;5022224;28;20486;-85
2023/04/29 08:08:19;;;;;;;5.57;4.50;;;17.80;57.10;;;;;;5025478;28;20452;-88
2023/04/29 08:10:46;;;;;;;5.43;4.37;;;17.90;57.70;;;;;;5031060;28;20452;-87
2023/04/29 08:13:13;;;;;;;6.90;4.23;;;18.00;57.20;;;;;;5020032;28;20487;-90
2023/04/29 08:15:40;;;;;;;5.50;4.60;;;18.10;55.40;;;;;;5022971;28;20563;-88
2023/04/29 08:18:08;;;;;;;7.53;4.80;;;17.90;56.30;;;;;;5008251;28;20914;-88
2023/04/29 08:20:35;;;;;;;5.30;4.53;;;17.90;56.70;;;;;;5011221;28;20454;-87
2023/04/29 08:23:02;;;;;;;7.53;4.93;;;18.10;56.60;;;;;;5007039;28;20534;-89
2023/04/29 08:25:30;;;;;;;7.90;4.67;;;17.90;56.40;;;;;;5011620;28;20859;-89
2023/04/29 08:27:57;;;;;;;9.13;4.87;;;17.90;56.40;;;;;;5008583;28;20844;-88
2023/04/29 08:30:24;;;;;;;7.40;4.77;;;18.10;56.80;;;;;;5022106;28;22145;-88
2023/04/29 08:32:51;;;;;;;5.80;4.33;;;18.30;56.60;;;;;;5009802;28;20569;-88
2023/04/29 08:35:20;;;;;;;6.67;5.07;;;18.30;56.50;;;;;;5026149;28;20477;-87
2023/04/29 08:37:47;;;;;;;7.13;5.23;;;18.30;56.50;;;;;;5020719;28;20973;-89
2023/04/29 08:40:14;;;;;;;6.67;4.80;;;18.40;55.90;;;;;;5011800;28;20465;-88
2023/04/29 08:42:44;;;;;;;6.47;4.93;;;18.40;55.80;;;;;;5009328;28;22059;-88
2023/04/29 08:45:13;;;;;;;6.13;4.30;;;18.50;54.00;;;;;;5000213;28;20473;-88
2023/04/29 08:47:40;;;;;;;4.80;4.30;;;18.40;55.10;;;;;;5051468;28;20473;-88
2023/04/29 08:50:09;;;;;;;7.23;4.47;;;18.30;54.80;;;;;;5004884;28;20455;-88
2023/04/29 08:52:37;;;;;;;4.33;3.93;;;18.40;55.20;;;;;;5018107;28;20456;-89
2023/04/29 08:55:06;;;;;;;7.00;4.00;;;18.60;55.00;;;;;;5035051;28;20469;-89
2023/04/29 08:57:38;;;;;;;4.80;4.33;;;18.80;55.00;;;;;;5037133;28;21115;-88
2023/04/29 09:00:07;;;;;;;5.83;3.87;;;19.00;55.00;;;;;;5049089;28;20532;-88
2023/04/29 09:02:41;;;;;;;5.17;4.33;;;19.00;53.40;;;;;;5004591;28;20468;-89
2023/04/29 09:05:10;;;;;;;6.13;3.63;;;18.80;53.20;;;;;;5025486;28;20472;-89
2023/04/29 09:07:38;;;;;;;5.57;4.40;;;18.50;53.80;;;;;;5033045;28;21032;-87
2023/04/29 09:10:06;;;;;;;4.97;3.80;;;18.50;54.10;;;;;;5024766;28;20444;-91
2023/04/29 09:12:34;;;;;;;4.30;3.90;;;18.70;53.90;;;;;;5007992;28;20458;-88
2023/04/29 09:15:02;;;;;;;5.33;4.20;;;18.90;54.40;;;;;;5043773;28;20473;-88
2023/04/29 09:17:39;;;;;;;4.90;4.10;;;19.00;54.30;;;;;;5043470;28;20455;-87
2023/04/29 09:20:26;;;;;;;6.00;4.37;;;18.90;53.50;;;;;;5014779;28;20624;-88
2023/04/29 09:22:56;;;;;;;3.87;3.47;;;19.00;53.90;;;;;;5025694;28;20465;-87
2023/04/29 09:25:23;;;;;;;5.97;3.90;;;18.70;53.60;;;;;;5014503;28;20465;-86
2023/04/29 09:27:51;;;;;;;4.17;3.77;;;18.80;53.60;;;;;;5033275;28;20662;-88
2023/04/29 09:30:18;;;;;;;6.00;3.70;;;18.90;53.80;;;;;;5024886;28;20446;-86
2023/04/29 09:32:46;;;;;;;4.50;3.80;;;19.20;53.40;;;;;;5032460;28;20990;-87
2023/04/29 09:35:24;;;;;;;4.20;3.80;;;19.00;52.90;;;;;;5016657;28;20467;-88
2023/04/29 09:37:52;;;;;;;3.53;3.23;;;19.00;52.90;;;;;;5008941;28;20449;-88
2023/04/29 09:40:31;;;;;;;5.03;3.60;;;19.00;53.40;;;;;;5022444;28;20544;-85
2023/04/29 09:42:58;;;;;;;4.20;3.80;;;18.80;52.30;;;;;;5027458;28;20460;-87
2023/04/29 09:45:35;;;;;;;3.40;3.00;;;19.00;53.30;;;;;;5023455;28;20465;-87
2023/04/29 09:48:03;;;;;;;2.60;2.40;;;19.10;52.20;;;;;;5010639;28;20484;-87
2023/04/29 09:50:31;;;;;;;4.00;3.33;;;18.80;51.50;;;;;;5017084;28;21014;-84
2023/04/29 09:52:58;;;;;;;3.40;2.97;;;18.80;51.70;;;;;;5017147;28;20454;-84
2023/04/29 09:55:25;;;;;;;4.17;2.90;;;18.50;52.80;;;;;;5013579;28;20473;-86
2023/04/29 09:57:53;;;;;;;3.20;2.60;;;18.80;52.60;;;;;;5020357;28;20817;-86
2023/04/29 10:00:20;;;;;;;3.00;2.70;;;18.90;52.50;;;;;;5015628;28;20839;-86
2023/04/29 10:02:49;;;;;;;3.00;2.23;;;18.90;52.10;;;;;;5003241;28;20999;-84
2023/04/29 10:05:17;;;;;;;3.50;2.70;;;19.00;50.90;;;;;;5027709;28;20469;-86
2023/04/29 10:07:47;;;;;;;3.13;2.63;;;19.00;52.20;;;;;;5006575;28;20560;-85
2023/04/29 10:10:14;;;;;;;3.57;3.23;;;19.00;50.80;;;;;;5035188;28;20607;-85
2023/04/29 10:12:43;;;;;;;5.80;3.17;;;18.80;51.30;;;;;;5041213;28;20479;-84
2023/04/29 10:15:20;;;;;;;2.90;2.70;;;18.80;51.80;;;;;;5011417;28;20560;-85
2023/04/29 10:17:51;;;;;;;2.53;2.33;;;18.70;52.10;;;;;;5037456;28;20445;-84
2023/04/29 10:20:23;;;;;;;2.83;2.40;;;18.50;51.50;;;;;;5037231;28;20452;-88
2023/04/29 10:22:51;;;;;;;4.10;2.90;;;18.20;51.80;;;;;;5013028;28;20735;-88
2023/04/29 10:25:20;;;;;;;2.23;2.03;;;18.30;53.40;;;;;;5009267;28;20552;-86
2023/04/29 10:27:49;;;;;;;4.13;3.10;;;18.50;51.90;;;;;;5020791;28;20463;-86
2023/04/29 10:30:18;;;;;;;5.40;2.70;;;18.50;51.00;;;;;;5000455;28;21005;-85
2023/04/29 10:32:46;;;;;;;3.30;2.67;;;18.60;51.90;;;;;;5023148;28;20444;-86
2023/04/29 10:35:14;;;;;;;3.43;2.63;;;18.80;52.20;;;;;;5037272;28;20554;-85
2023/04/29 10:37:42;;;;;;;4.33;2.70;;;19.00;51.50;;;;;;5020617;28;20528;-85
2023/04/29 10:40:14;;;;;;;3.10;2.43;;;19.00;50.60;;;;;;5042370;28;21062;-86
2023/04/29 10:42:45;;;;;;;3.47;2.90;;;18.70;51.60;;;;;;5038719;28;20813;-85
2023/04/29 10:45:25;;;;;;;2.53;2.33;;;18.50;50.90;;;;;;5020580;28;21024;-86
2023/04/29 10:48:12;;;;;;;5.83;3.37;;;18.60;51.90;;;;;;5016724;28;20472;-86
2023/04/29 10:50:59;;;;;;;3.00;2.70;;;18.60;50.90;;;;;;5028564;28;20457;-86
2023/04/29 10:53:27;;;;;;;3.60;2.73;;;18.50;50.50;;;;;;5025728;28;20449;-86
2023/04/29 10:55:58;;;;;;;4.50;2.30;;;18.50;51.70;;;;;;5036926;28;20474;-84
2023/04/29 10:58:44;;;;;;;3.23;2.83;;;18.70;52.30;;;;;;5000152;28;20452;-85
2023/04/29 11:01:14;;;;;;;3.37;2.73;;;18.70;51.20;;;;;;5002799;28;20511;-84
2023/04/29 11:03:57;;;;;;;2.50;2.30;;;18.80;50.90;;;;;;5032465;28;20449;-86
2023/04/29 11:06:25;;;;;;;2.90;2.30;;;18.60;48.90;;;;;;5018340;28;20599;-84
2023/04/29 11:09:04;;;;;;;2.30;2.03;;;18.40;50.10;;;;;;5002324;28;20465;-85
2023/04/29 11:11:42;;;;;;;2.80;2.47;;;18.50;50.20;;;;;;5001202;28;20550;-85
2023/04/29 11:14:10;;;;;;;2.53;2.07;;;18.30;51.00;;;;;;5034872;28;20452;-86
2023/04/29 11:16:46;;;;;;;2.00;1.80;;;18.70;50.80;;;;;;5006068;28;20476;-85
2023/04/29 11:19:16;;;;;;;2.60;2.30;;;18.90;50.70;;;;;;5008845;28;20449;-86
2023/04/29 11:21:45;;;;;;;2.10;1.87;;;18.90;51.40;;;;;;5025915;28;20449;-86
2023/04/29 11:24:14;;;;;;;2.30;2.00;;;19.00;50.10;;;;;;5023391;28;20469;-85
2023/04/29 11:26:42;;;;;;;2.53;2.07;;;19.10;50.30;;;;;;5010040;28;20475;-84
2023/04/29 11:29:10;;;;;;;3.00;2.10;;;19.20;50.00;;;;;;5010529;28;21045;-87
2023/04/29 11:31:39;;;;;;;3.20;2.00;;;19.30;50.00;;;;;;5009088;28;20449;-83
2023/04/29 11:34:07;;;;;;;3.90;2.27;;;19.40;49.10;;;;;;5024953;28;20507;-85
2023/04/29 11:36:35;;;;;;;2.90;2.03;;;19.30;48.40;;;;;;5022741;28;20469;-82
2023/04/29 11:39:04;;;;;;;2.20;2.00;;;19.20;49.40;;;;;;5011370;28;20514;-84
2023/04/29 11:41:31;;;;;;;2.53;2.07;;;19.10;50.50;;;;;;5019464;28;20490;-86
2023/04/29 11:44:00;;;;;;;2.63;2.20;;;19.10;50.10;;;;;;5011958;28;20449;-86
2023/04/29 11:46:30;;;;;;;3.20;2.17;;;19.30;50.40;;;;;;4991311;28;20477;-82
2023/04/29 11:49:00;;;;;;;4.07;2.10;;;19.40;49.20;;;;;;5013719;28;21329;-83
2023/04/29 11:51:27;;;;;;;6.37;2.43;;;19.10;50.40;;;;;;5004515;28;20448;-85
2023/04/29 11:53:56;;;;;;;3.20;2.20;;;19.10;50.20;;;;;;5006225;28;20458;-83
2023/04/29 11:56:25;;;;;;;5.93;2.10;;;18.90;50.10;;;;;;5028523;28;20468;-84
2023/04/29 11:58:55;;;;;;;4.00;2.10;;;18.70;50.00;;;;;;5002991;28;20452;-83
2023/04/29 12:01:22;;;;;;;3.90;2.50;;;18.60;51.00;;;;;;5032720;28;20471;-83
2023/04/29 12:03:50;;;;;;;3.70;3.00;;;18.50;50.40;;;;;;5016834;28;20496;-84
2023/04/29 12:06:18;;;;;;;3.30;2.40;;;18.50;50.90;;;;;;4998052;28;20983;-84
2023/04/29 12:08:47;;;;;;;3.20;2.60;;;18.40;50.50;;;;;;5032741;28;20564;-84
2023/04/29 12:11:14;;;;;;;4.47;2.37;;;18.30;50.60;;;;;;5029651;28;20449;-84
2023/04/29 12:13:42;;;;;;;3.17;2.83;;;18.50;51.40;;;;;;5018791;28;20449;-84
2023/04/29 12:16:10;;;;;;;3.60;3.00;;;18.70;50.90;;;;;;5019791;28;20476;-86
2023/04/29 12:18:37;;;;;;;4.77;3.07;;;18.70;50.60;;;;;;5028059;28;20434;-83
2023/04/29 12:21:05;;;;;;;3.80;2.20;;;18.90;51.20;;;;;;5026709;28;20457;-85
2023/04/29 12:23:36;;;;;;;2.67;2.13;;;19.10;50.10;;;;;;5000034;28;20498;-84
2023/04/29 12:26:04;;;;;;;2.17;1.93;;;19.10;50.20;;;;;;5025522;28;20471;-83
2023/04/29 12:28:31;;;;;;;2.87;2.20;;;19.20;49.00;;;;;;5037831;28;20567;-83
2023/04/29 12:31:00;;;;;;;2.10;1.90;;;19.40;50.70;;;;;;5040884;28;20452;-84
2023/04/29 12:33:29;;;;;;;3.23;2.27;;;19.70;50.40;;;;;;5025360;28;20449;-83
2023/04/29 12:35:57;;;;;;;6.60;3.43;;;19.80;48.00;;;;;;5031478;28;20508;-83
2023/04/29 12:38:26;;;;;;;3.70;2.73;;;19.70;47.10;;;;;;5023075;28;20448;-86
2023/04/29 12:40:55;;;;;;;2.57;2.10;;;19.70;47.60;;;;;;5042119;28;20464;-83
2023/04/29 12:43:26;;;;;;;2.60;2.10;;;19.60;47.90;;;;;;5023674;28;20475;-86
2023/04/29 12:45:56;;;;;;;7.37;3.37;;;19.50;48.10;;;;;;5002953;28;20481;-84
2023/04/29 12:48:30;;;;;;;2.07;1.70;;;19.60;48.50;;;;;;5002454;28;20468;-82
2023/04/29 12:50:58;;;;;;;10.37;4.20;;;19.70;47.90;;;;;;5011146;28;20507;-83
2023/04/29 12:53:26;;;;;;;2.33;1.80;;;19.50;48.50;;;;;;5039294;28;20450;-84
2023/04/29 12:55:54;;;;;;;5.23;2.47;;;19.40;47.80;;;;;;5020402;28;21074;-79
2023/04/29 12:58:21;;;;;;;2.37;1.77;;;19.30;48.10;;;;;;5012092;28;21134;-83